Time;durP1;ratioP1;P1;durP2;ratioP2;P2;SDS_P1;SDS_P2;PMS_P1;PMS_P2;Temp;Humidity;BMP_temperature;BMP_pressure;BME280_temperature;BME280_humidity;BME280_pressure;Samples;Min_cycle;Max_cycle;Signal;HPM_P1;HPM_P2
2022/10/07 00:01:01;;;;;;;9.32;1.90;;;11.00;99.90;;;;;;5009408;28;20050;-69
2022/10/07 00:03:27;;;;;;;7.90;2.00;;;10.90;99.90;;;;;;5007364;28;20576;-69
2022/10/07 00:06:00;;;;;;;7.45;1.90;;;10.90;99.90;;;;;;4993001;28;20042;-70
2022/10/07 00:08:25;;;;;;;7.47;2.00;;;10.90;99.90;;;;;;4976187;28;20500;-70
2022/10/07 00:10:51;;;;;;;10.95;2.28;;;10.90;99.90;;;;;;5009333;28;20050;-70
2022/10/07 00:13:16;;;;;;;7.07;2.10;;;10.80;99.90;;;;;;4991889;28;20447;-70
2022/10/07 00:15:42;;;;;;;8.10;2.05;;;10.80;99.90;;;;;;4973983;28;20455;-70
2022/10/07 00:18:07;;;;;;;8.48;2.40;;;10.80;99.90;;;;;;4992024;28;20044;-70
2022/10/07 00:20:38;;;;;;;8.98;2.40;;;10.80;99.90;;;;;;5008996;28;20077;-70
2022/10/07 00:23:04;;;;;;;10.23;2.20;;;10.80;99.90;;;;;;4974003;28;20045;-69
2022/10/07 00:25:29;;;;;;;7.75;2.00;;;10.80;99.90;;;;;;5009017;28;20049;-69
2022/10/07 00:27:55;;;;;;;10.10;2.60;;;10.70;99.90;;;;;;4992725;28;20377;-69
2022/10/07 00:30:21;;;;;;;12.63;2.30;;;10.70;99.90;;;;;;4992662;28;20038;-69
2022/10/07 00:32:46;;;;;;;6.68;2.05;;;10.80;99.90;;;;;;4991965;28;20049;-69
2022/10/07 00:35:12;;;;;;;7.10;2.13;;;10.70;99.90;;;;;;4976410;28;20508;-69
2022/10/07 00:37:41;;;;;;;8.43;2.22;;;10.70;99.90;;;;;;5007925;28;20074;-69
2022/10/07 00:40:11;;;;;;;11.25;2.33;;;10.70;99.90;;;;;;4992464;28;20492;-69
2022/10/07 00:42:37;;;;;;;9.20;2.28;;;10.60;99.90;;;;;;4991803;28;20430;-69
2022/10/07 00:45:03;;;;;;;7.78;2.15;;;10.60;99.90;;;;;;5008388;28;20092;-69
2022/10/07 00:47:32;;;;;;;7.95;2.40;;;10.60;99.90;;;;;;4991019;28;20508;-69
2022/10/07 00:50:09;;;;;;;8.25;2.40;;;10.60;99.90;;;;;;4992685;28;20042;-69
2022/10/07 00:52:40;;;;;;;11.60;2.67;;;10.50;99.90;;;;;;4991508;28;20058;-69
2022/10/07 00:55:11;;;;;;;7.95;2.40;;;10.50;99.90;;;;;;5008761;28;20042;-69
2022/10/07 00:57:37;;;;;;;8.75;2.72;;;10.50;99.90;;;;;;4991427;28;20062;-69
2022/10/07 01:00:05;;;;;;;9.50;2.83;;;10.40;99.90;;;;;;5019118;28;20094;-69
2022/10/07 01:02:32;;;;;;;12.50;2.95;;;10.40;99.90;;;;;;5021404;28;20053;-69
2022/10/07 01:05:00;;;;;;;11.32;2.78;;;10.40;99.90;;;;;;4975098;28;20046;-69
2022/10/07 01:07:27;;;;;;;7.40;2.40;;;10.40;99.90;;;;;;4992304;28;20150;-69
2022/10/07 01:09:55;;;;;;;8.70;2.50;;;10.40;99.90;;;;;;4991578;28;20496;-70
2022/10/07 01:12:55;;;;;;;9.93;2.65;;;10.50;99.90;;;;;;4992474;28;20050;-69
2022/10/07 01:15:34;;;;;;;8.57;2.88;;;10.50;99.90;;;;;;4992251;28;20501;-69
2022/10/07 01:18:09;;;;;;;10.32;2.80;;;10.50;99.90;;;;;;4990307;28;20121;-69
2022/10/07 01:20:56;;;;;;;10.00;2.55;;;10.50;99.90;;;;;;5023348;28;20085;-69
2022/10/07 01:23:31;;;;;;;9.90;2.63;;;10.40;99.90;;;;;;4992243;28;20042;-69
2022/10/07 01:26:35;;;;;;;11.52;2.90;;;10.40;99.90;;;;;;5011715;28;20046;-69
2022/10/07 01:29:08;;;;;;;8.18;2.95;;;10.40;99.90;;;;;;5011381;28;20092;-69
2022/10/07 01:31:50;;;;;;;11.40;2.83;;;10.40;99.90;;;;;;4996156;28;20120;-69
2022/10/07 01:34:17;;;;;;;13.27;3.08;;;10.40;99.90;;;;;;4976366;28;20080;-70
2022/10/07 01:36:49;;;;;;;8.00;2.92;;;10.40;99.90;;;;;;5008803;28;20045;-69
2022/10/07 01:39:17;;;;;;;8.43;2.95;;;10.40;99.90;;;;;;4996940;28;20396;-69
2022/10/07 01:41:43;;;;;;;9.30;2.83;;;10.30;99.90;;;;;;4995633;28;20042;-69
2022/10/07 01:44:11;;;;;;;9.25;3.20;;;10.30;99.90;;;;;;4994702;28;20109;-69
2022/10/07 01:46:37;;;;;;;12.00;3.05;;;10.30;99.90;;;;;;4993108;28;20038;-69
2022/10/07 01:49:04;;;;;;;11.20;3.05;;;10.30;99.90;;;;;;4993564;28;20042;-69
2022/10/07 01:51:35;;;;;;;8.98;2.90;;;10.30;99.90;;;;;;4979242;28;20053;-69
2022/10/07 01:54:26;;;;;;;9.80;2.83;;;10.30;99.90;;;;;;4994888;28;20066;-69
2022/10/07 01:57:18;;;;;;;10.07;2.72;;;10.30;99.90;;;;;;4995188;28;20297;-69
2022/10/07 02:00:04;;;;;;;13.13;3.28;;;10.30;99.90;;;;;;4994346;28;20054;-69
2022/10/07 02:02:53;;;;;;;12.23;3.25;;;10.20;99.90;;;;;;5011750;28;20049;-69
2022/10/07 02:05:34;;;;;;;8.07;3.05;;;10.30;99.90;;;;;;5011630;28;20052;-69
2022/10/07 02:08:43;;;;;;;8.55;3.03;;;10.20;99.90;;;;;;4995118;28;20047;-69
2022/10/07 02:11:15;;;;;;;9.77;3.08;;;10.20;99.90;;;;;;4995047;28;20141;-69
2022/10/07 02:14:10;;;;;;;10.75;3.10;;;10.20;99.90;;;;;;4994242;28;20045;-69
2022/10/07 02:16:48;;;;;;;9.43;3.38;;;10.20;99.90;;;;;;5017098;28;20093;-69
2022/10/07 02:19:55;;;;;;;8.82;3.08;;;10.10;99.90;;;;;;5006378;28;20141;-69
2022/10/07 02:22:24;;;;;;;8.90;2.85;;;10.20;99.90;;;;;;4978392;28;20051;-69
2022/10/07 02:24:54;;;;;;;9.00;2.90;;;10.10;99.90;;;;;;5004091;28;20071;-69
2022/10/07 02:27:24;;;;;;;10.30;3.35;;;10.20;99.90;;;;;;4993319;28;20053;-69
2022/10/07 02:29:53;;;;;;;11.18;3.50;;;10.20;99.90;;;;;;4994747;28;20515;-69
2022/10/07 02:32:22;;;;;;;10.70;3.10;;;10.20;99.90;;;;;;4977306;28;20070;-69
2022/10/07 02:34:53;;;;;;;10.60;3.10;;;10.20;99.90;;;;;;4994279;28;20041;-69
2022/10/07 02:37:25;;;;;;;10.65;2.95;;;10.20;99.90;;;;;;4977726;28;20117;-70
2022/10/07 02:39:52;;;;;;;9.43;2.80;;;10.20;99.90;;;;;;5010884;28;20039;-69
2022/10/07 02:42:39;;;;;;;9.68;3.00;;;10.20;99.90;;;;;;4993893;28;20062;-69
2022/10/07 02:45:35;;;;;;;9.85;2.85;;;10.20;99.90;;;;;;4997768;28;20050;-69
2022/10/07 02:48:17;;;;;;;12.45;2.83;;;10.10;99.90;;;;;;4971968;28;20054;-69
2022/10/07 02:50:46;;;;;;;8.73;3.07;;;10.10;99.90;;;;;;5003424;28;20034;-69
2022/10/07 02:53:13;;;;;;;11.88;3.53;;;10.20;99.90;;;;;;4991479;28;20049;-69
2022/10/07 02:55:41;;;;;;;12.30;2.97;;;10.10;99.90;;;;;;4992101;28;20157;-69
2022/10/07 02:58:09;;;;;;;11.32;3.03;;;10.10;99.90;;;;;;4977313;28;20402;-69
2022/10/07 03:00:38;;;;;;;8.93;3.00;;;10.10;99.90;;;;;;4992511;28;20416;-69
2022/10/07 03:03:04;;;;;;;13.60;3.78;;;10.10;99.90;;;;;;4977342;28;20042;-69
2022/10/07 03:05:32;;;;;;;13.43;3.20;;;10.10;99.90;;;;;;4975062;28;20500;-69
2022/10/07 03:08:07;;;;;;;9.15;3.03;;;10.10;99.90;;;;;;4993456;28;20125;-69
2022/10/07 03:10:33;;;;;;;13.35;3.35;;;10.10;99.90;;;;;;4991516;28;20085;-69
2022/10/07 03:12:59;;;;;;;11.77;2.88;;;10.00;99.90;;;;;;4975600;28;20492;-69
2022/10/07 03:15:24;;;;;;;10.40;3.20;;;10.10;99.90;;;;;;4991232;28;20096;-69
2022/10/07 03:17:51;;;;;;;10.13;3.33;;;10.00;99.90;;;;;;4991920;28;20412;-69
2022/10/07 03:20:16;;;;;;;8.82;3.17;;;10.00;99.90;;;;;;4992021;28;20034;-69
2022/10/07 03:22:42;;;;;;;10.27;3.15;;;10.00;99.90;;;;;;4978681;28;20121;-69
2022/10/07 03:25:08;;;;;;;9.77;3.55;;;10.00;99.90;;;;;;4997284;28;20038;-70
2022/10/07 03:27:34;;;;;;;11.60;3.13;;;10.00;99.90;;;;;;5024873;28;20070;-69
2022/10/07 03:30:00;;;;;;;9.13;3.00;;;10.00;99.90;;;;;;4976058;28;20066;-69
2022/10/07 03:32:26;;;;;;;8.95;3.10;;;10.00;99.90;;;;;;4977283;28;20039;-69
2022/10/07 03:34:53;;;;;;;9.90;3.38;;;10.00;99.90;;;;;;4989498;28;20078;-69
2022/10/07 03:37:22;;;;;;;12.30;3.42;;;10.00;99.90;;;;;;4992674;28;20050;-69
2022/10/07 03:39:48;;;;;;;11.45;3.28;;;10.00;99.90;;;;;;4993173;28;20042;-69
2022/10/07 03:42:14;;;;;;;10.82;3.25;;;10.00;99.90;;;;;;5026162;28;20511;-69
2022/10/07 03:44:39;;;;;;;10.20;3.03;;;9.90;99.90;;;;;;4992848;28;20133;-69
2022/10/07 03:47:07;;;;;;;13.43;3.10;;;10.00;99.90;;;;;;4990199;28;20049;-69
2022/10/07 03:49:33;;;;;;;12.57;3.13;;;9.90;99.90;;;;;;5008447;28;20042;-70
2022/10/07 03:51:59;;;;;;;11.40;3.17;;;10.00;99.90;;;;;;5008507;28;20112;-70
2022/10/07 03:54:25;;;;;;;10.90;2.90;;;10.00;99.90;;;;;;5026044;28;20141;-69
2022/10/07 03:56:51;;;;;;;8.60;3.10;;;10.00;99.90;;;;;;4989099;28;20054;-69
2022/10/07 03:59:16;;;;;;;11.07;3.75;;;10.00;99.90;;;;;;4975081;28;20042;-69
2022/10/07 04:01:42;;;;;;;12.90;3.30;;;10.00;99.90;;;;;;4975306;28;20086;-69
2022/10/07 04:04:08;;;;;;;11.98;3.53;;;9.90;99.90;;;;;;4992339;28;20038;-69
2022/10/07 04:06:34;;;;;;;11.73;2.92;;;10.00;99.90;;;;;;4991592;28;20038;-69
2022/10/07 04:08:59;;;;;;;7.88;3.50;;;10.00;99.90;;;;;;5008727;28;20484;-69
2022/10/07 04:11:25;;;;;;;9.57;3.45;;;10.00;99.90;;;;;;4991799;28;20046;-69
2022/10/07 04:13:51;;;;;;;12.27;3.47;;;10.00;99.90;;;;;;4992361;28;20471;-69
2022/10/07 04:16:17;;;;;;;13.18;3.38;;;10.00;99.90;;;;;;5005510;28;20130;-69
2022/10/07 04:18:43;;;;;;;11.82;3.38;;;10.00;99.90;;;;;;4991921;28;20038;-69
2022/10/07 04:21:09;;;;;;;10.00;3.35;;;10.00;99.90;;;;;;5004090;28;20117;-69
2022/10/07 04:23:35;;;;;;;12.60;3.55;;;10.00;99.90;;;;;;4992943;28;20038;-69
2022/10/07 04:26:05;;;;;;;10.95;3.50;;;10.00;99.90;;;;;;4990030;28;20543;-69
2022/10/07 04:28:30;;;;;;;10.93;3.30;;;10.00;99.90;;;;;;4975489;28;20048;-69
2022/10/07 04:30:56;;;;;;;11.32;3.33;;;10.00;99.90;;;;;;4990967;28;20411;-69
2022/10/07 04:33:23;;;;;;;13.82;3.20;;;9.90;99.90;;;;;;4990421;28;20045;-69
2022/10/07 04:35:49;;;;;;;12.85;4.07;;;10.00;99.90;;;;;;5006846;28;20518;-69
2022/10/07 04:38:17;;;;;;;11.35;2.88;;;9.90;99.90;;;;;;4992640;28;20053;-69
2022/10/07 04:40:45;;;;;;;9.32;2.70;;;10.00;99.90;;;;;;4991093;28;20044;-69
2022/10/07 04:43:19;;;;;;;11.10;3.55;;;9.90;99.90;;;;;;4991815;28;20076;-69
2022/10/07 04:46:05;;;;;;;11.15;3.40;;;9.90;99.90;;;;;;4989959;28;20452;-69
2022/10/07 04:48:32;;;;;;;12.70;3.78;;;9.90;99.90;;;;;;5015884;28;20100;-70
2022/10/07 04:51:02;;;;;;;11.02;3.40;;;9.90;99.90;;;;;;4973860;28;20039;-69
2022/10/07 04:53:28;;;;;;;10.82;3.38;;;9.90;99.90;;;;;;4990203;28;20050;-70
2022/10/07 04:55:54;;;;;;;11.85;3.95;;;9.90;99.90;;;;;;5007940;28;20511;-69
2022/10/07 04:58:19;;;;;;;12.38;3.80;;;9.90;99.90;;;;;;5025040;28;20542;-69
2022/10/07 05:00:48;;;;;;;11.38;3.17;;;10.00;99.90;;;;;;4993992;28;20046;-69
2022/10/07 05:03:15;;;;;;;10.77;3.20;;;10.00;99.90;;;;;;5004689;28;20069;-69
2022/10/07 05:05:46;;;;;;;13.88;3.72;;;10.00;99.90;;;;;;4979545;28;20049;-69
2022/10/07 05:08:17;;;;;;;9.95;2.78;;;10.00;99.90;;;;;;4993697;28;20046;-69
2022/10/07 05:10:43;;;;;;;11.82;4.13;;;10.00;99.90;;;;;;4994857;28;20042;-70
2022/10/07 05:13:11;;;;;;;14.05;3.30;;;9.90;99.90;;;;;;4994633;28;20038;-69
2022/10/07 05:15:46;;;;;;;11.15;3.60;;;9.90;99.90;;;;;;4995681;28;20480;-69
2022/10/07 05:18:12;;;;;;;11.13;3.20;;;9.90;99.90;;;;;;4998069;28;20524;-69
2022/10/07 05:20:39;;;;;;;13.55;3.60;;;9.90;99.90;;;;;;4993291;28;20041;-70
2022/10/07 05:23:05;;;;;;;10.88;3.80;;;9.90;99.90;;;;;;4991151;28;20046;-70
2022/10/07 05:25:30;;;;;;;11.00;3.20;;;10.00;99.90;;;;;;5026881;28;20173;-69
2022/10/07 05:27:56;;;;;;;14.77;3.35;;;10.00;99.90;;;;;;4994755;28;20038;-70
2022/10/07 05:30:21;;;;;;;15.20;4.88;;;10.00;99.90;;;;;;4993806;28;20136;-70
2022/10/07 05:32:48;;;;;;;16.58;4.07;;;9.90;99.90;;;;;;4978148;28;20042;-70
2022/10/07 05:35:14;;;;;;;14.93;3.80;;;9.90;99.90;;;;;;4978019;28;20042;-70
2022/10/07 05:37:39;;;;;;;11.13;3.72;;;10.00;99.90;;;;;;5011421;28;20125;-69
2022/10/07 05:40:05;;;;;;;10.93;3.30;;;9.90;99.90;;;;;;5010253;28;20038;-70
2022/10/07 05:42:31;;;;;;;12.77;3.30;;;10.00;99.90;;;;;;4995899;28;20085;-69
2022/10/07 05:44:56;;;;;;;14.30;3.45;;;10.00;99.90;;;;;;5026639;28;20052;-70
2022/10/07 05:47:22;;;;;;;10.38;3.63;;;10.10;99.90;;;;;;4987758;28;20042;-69
2022/10/07 05:49:47;;;;;;;11.70;3.75;;;10.10;99.90;;;;;;5014905;28;20034;-70
2022/10/07 05:52:13;;;;;;;14.70;4.75;;;10.10;99.90;;;;;;5019400;28;20046;-70
2022/10/07 05:54:38;;;;;;;14.18;4.38;;;10.10;99.90;;;;;;4991012;28;20492;-70
2022/10/07 05:57:04;;;;;;;13.82;3.65;;;10.10;99.90;;;;;;4975871;28;20058;-70
2022/10/07 05:59:30;;;;;;;13.05;3.53;;;10.10;99.90;;;;;;4994447;28;20074;-70
2022/10/07 06:01:56;;;;;;;16.10;4.00;;;10.10;99.90;;;;;;4993248;28;20121;-70
2022/10/07 06:04:22;;;;;;;11.65;4.10;;;10.20;99.90;;;;;;4990554;28;20121;-70
2022/10/07 06:06:47;;;;;;;13.48;3.90;;;10.20;99.90;;;;;;4991227;28;20489;-70
2022/10/07 06:14:41;;;;;;;13.25;4.38;;;10.30;99.90;;;;;;5022274;28;20070;-70
2022/10/07 06:17:07;;;;;;;14.77;4.15;;;10.30;99.90;;;;;;4993751;28;20511;-70
2022/10/07 06:19:32;;;;;;;13.13;4.28;;;10.40;99.90;;;;;;4990179;28;20101;-70
2022/10/07 06:21:58;;;;;;;16.38;4.10;;;10.40;99.90;;;;;;4978079;28;20041;-70
2022/10/07 06:24:24;;;;;;;13.18;3.80;;;10.40;99.90;;;;;;4976788;28;20485;-70
2022/10/07 06:26:54;;;;;;;12.10;3.90;;;10.40;99.90;;;;;;5010608;28;20048;-70
2022/10/07 06:29:19;;;;;;;13.20;4.20;;;10.40;99.90;;;;;;4992531;28;20504;-70
2022/10/07 06:31:45;;;;;;;15.13;3.65;;;10.40;99.90;;;;;;4992959;28;20121;-70
2022/10/07 06:34:10;;;;;;;14.43;3.67;;;10.50;99.90;;;;;;5010066;28;20503;-70
2022/10/07 06:36:36;;;;;;;15.70;4.05;;;10.50;99.90;;;;;;4994153;28;20121;-70
2022/10/07 06:39:02;;;;;;;11.07;3.85;;;10.50;99.90;;;;;;4974050;28;20125;-70
2022/10/07 06:41:27;;;;;;;13.75;3.90;;;10.50;99.90;;;;;;5008241;28;20074;-70
2022/10/07 06:43:56;;;;;;;14.27;3.60;;;10.60;99.90;;;;;;4976355;28;20038;-70
2022/10/07 06:46:22;;;;;;;12.13;3.55;;;10.60;99.90;;;;;;4993997;28;20483;-70
2022/10/07 06:48:47;;;;;;;12.93;3.92;;;10.60;99.90;;;;;;4992037;28;20081;-70
2022/10/07 06:51:15;;;;;;;16.02;4.07;;;10.60;99.90;;;;;;4976623;28;20503;-70
2022/10/07 06:53:41;;;;;;;14.23;4.20;;;10.70;99.90;;;;;;4993211;28;20053;-70
2022/10/07 06:56:07;;;;;;;12.90;3.80;;;10.70;99.90;;;;;;4993327;28;20409;-70
2022/10/07 06:58:33;;;;;;;13.23;3.83;;;10.80;99.90;;;;;;4993816;28;20059;-70
2022/10/07 07:00:59;;;;;;;14.27;4.18;;;10.80;99.90;;;;;;4977199;28;20037;-70
2022/10/07 07:03:25;;;;;;;13.57;3.40;;;10.80;99.90;;;;;;4990734;28;20076;-70
2022/10/07 07:05:51;;;;;;;14.90;4.20;;;10.90;99.90;;;;;;4992335;28;20078;-70
2022/10/07 07:08:22;;;;;;;14.93;3.55;;;10.90;99.90;;;;;;4993739;28;20062;-70
2022/10/07 07:10:48;;;;;;;17.42;4.18;;;11.00;99.90;;;;;;4976531;28;20049;-70
2022/10/07 07:13:14;;;;;;;13.13;3.47;;;11.10;99.90;;;;;;4993400;28;20051;-70
2022/10/07 07:15:40;;;;;;;13.43;3.60;;;11.10;99.90;;;;;;4993619;28;20511;-70
2022/10/07 07:18:07;;;;;;;15.23;3.08;;;11.20;99.90;;;;;;5026441;28;20046;-70
2022/10/07 07:20:36;;;;;;;15.85;3.42;;;11.20;99.90;;;;;;4990665;28;20090;-70
2022/10/07 07:23:06;;;;;;;12.35;3.38;;;11.30;99.90;;;;;;4991773;28;20049;-70
2022/10/07 07:25:36;;;;;;;16.13;4.65;;;11.30;99.90;;;;;;4991685;28;20108;-70
2022/10/07 07:28:03;;;;;;;14.68;3.90;;;11.40;99.90;;;;;;4987512;28;20039;-70
2022/10/07 07:30:29;;;;;;;15.52;3.85;;;11.40;99.90;;;;;;4992353;28;20046;-70
2022/10/07 07:32:56;;;;;;;14.35;3.08;;;11.50;99.90;;;;;;5022360;28;20246;-70
2022/10/07 07:35:22;;;;;;;13.70;2.90;;;11.50;99.90;;;;;;5008130;28;20144;-70
2022/10/07 07:37:49;;;;;;;14.13;3.03;;;11.60;99.90;;;;;;4992634;28;20086;-70
2022/10/07 07:40:15;;;;;;;12.25;3.75;;;11.60;99.90;;;;;;5005947;28;20038;-70
2022/10/07 07:42:41;;;;;;;15.02;4.50;;;11.70;99.90;;;;;;4974511;28;20042;-70
2022/10/07 07:45:07;;;;;;;14.32;3.78;;;11.80;99.90;;;;;;4975617;28;20053;-70
2022/10/07 07:47:34;;;;;;;15.65;3.63;;;11.90;99.90;;;;;;4993066;28;20050;-74
2022/10/07 07:50:00;;;;;;;16.00;3.50;;;11.80;99.90;;;;;;5025093;28;20451;-74
2022/10/07 07:52:26;;;;;;;11.45;3.22;;;11.90;99.90;;;;;;4974237;28;20043;-70
2022/10/07 07:54:56;;;;;;;10.75;3.17;;;11.90;99.90;;;;;;4992278;28;20377;-70
2022/10/07 07:57:23;;;;;;;14.77;3.20;;;12.00;99.90;;;;;;4991669;28;20054;-70
2022/10/07 07:59:48;;;;;;;11.27;3.78;;;12.00;99.90;;;;;;4991651;28;20081;-70
2022/10/07 08:02:14;;;;;;;16.67;3.78;;;12.00;99.90;;;;;;4991092;28;20042;-71
2022/10/07 08:04:40;;;;;;;11.40;3.08;;;12.10;99.90;;;;;;5005545;28;20045;-70
2022/10/07 08:07:05;;;;;;;13.40;3.10;;;12.20;99.90;;;;;;5008101;28;20519;-70
2022/10/07 08:09:31;;;;;;;11.98;3.13;;;12.20;99.90;;;;;;5008115;28;20416;-71
2022/10/07 08:11:56;;;;;;;14.77;3.95;;;12.30;99.90;;;;;;5007383;28;20089;-71
2022/10/07 08:14:22;;;;;;;16.27;3.28;;;12.30;99.90;;;;;;4990665;28;20110;-70
2022/10/07 08:16:49;;;;;;;14.65;2.92;;;12.40;99.90;;;;;;4991464;28;20038;-70
2022/10/07 08:19:14;;;;;;;14.05;2.83;;;12.50;99.90;;;;;;5007064;28;20034;-70
2022/10/07 08:21:40;;;;;;;13.13;3.15;;;12.60;99.90;;;;;;4990550;28;20042;-70
2022/10/07 08:24:07;;;;;;;14.80;3.20;;;12.60;99.90;;;;;;5023185;28;20041;-71
2022/10/07 08:26:33;;;;;;;12.32;2.47;;;12.70;99.90;;;;;;4991230;28;20046;-70
2022/10/07 08:29:00;;;;;;;14.07;3.20;;;12.70;99.90;;;;;;4975283;28;20160;-70
2022/10/07 08:31:27;;;;;;;13.45;3.53;;;12.80;99.90;;;;;;4991016;28;20038;-70
2022/10/07 08:33:54;;;;;;;15.07;2.72;;;12.80;99.90;;;;;;5005558;28;20053;-70
2022/10/07 08:36:22;;;;;;;9.85;2.75;;;12.90;99.90;;;;;;4991350;28;20443;-70
2022/10/07 08:38:48;;;;;;;12.55;3.30;;;13.00;99.90;;;;;;5007057;28;20046;-70
2022/10/07 08:41:40;;;;;;;12.15;2.40;;;13.00;99.90;;;;;;5007552;28;20438;-71
2022/10/07 08:44:31;;;;;;;13.32;2.65;;;13.00;99.90;;;;;;4993417;28;20047;-70
2022/10/07 08:47:05;;;;;;;11.98;3.45;;;13.10;99.90;;;;;;5015622;28;20379;-71
2022/10/07 08:49:42;;;;;;;11.77;2.67;;;13.20;99.90;;;;;;4991332;28;20068;-71
2022/10/07 08:52:27;;;;;;;11.98;2.85;;;13.30;99.90;;;;;;4990919;28;20081;-71
2022/10/07 08:54:53;;;;;;;15.88;3.03;;;13.40;99.90;;;;;;5005829;28;20616;-70
2022/10/07 08:57:50;;;;;;;10.85;2.70;;;13.40;99.90;;;;;;5009796;28;20125;-70
2022/10/07 09:00:20;;;;;;;14.68;2.80;;;13.50;99.90;;;;;;5009285;28;20088;-70
2022/10/07 09:03:13;;;;;;;10.27;2.50;;;13.60;99.90;;;;;;4989924;28;20053;-71
2022/10/07 09:05:43;;;;;;;11.48;2.65;;;13.80;99.90;;;;;;4992541;28;20046;-70
2022/10/07 09:08:19;;;;;;;13.18;2.40;;;13.80;99.90;;;;;;4970408;28;20176;-70
2022/10/07 09:10:52;;;;;;;13.48;4.25;;;13.90;99.90;;;;;;4986167;28;20073;-71
2022/10/07 09:13:29;;;;;;;11.98;2.50;;;14.10;99.90;;;;;;4973625;28;20412;-71
2022/10/07 09:16:06;;;;;;;14.40;3.20;;;14.10;99.90;;;;;;4990595;28;20126;-71
2022/10/07 09:18:57;;;;;;;10.95;2.40;;;14.20;99.90;;;;;;5010906;28;20038;-70
2022/10/07 09:21:35;;;;;;;15.07;2.75;;;14.30;99.90;;;;;;5022054;28;20146;-71
2022/10/07 09:24:23;;;;;;;17.05;3.33;;;14.40;99.90;;;;;;4990733;28;20038;-71
2022/10/07 09:26:53;;;;;;;11.73;2.20;;;14.50;99.90;;;;;;4990004;28;20455;-71
2022/10/07 09:29:22;;;;;;;12.30;2.30;;;14.50;99.90;;;;;;4990429;28;20034;-70
2022/10/07 09:31:48;;;;;;;11.68;2.55;;;14.60;99.90;;;;;;5022868;28;20041;-71
2022/10/07 09:34:24;;;;;;;9.25;2.58;;;14.70;99.90;;;;;;4997608;28;20040;-71
2022/10/07 09:37:11;;;;;;;13.38;3.28;;;14.70;99.90;;;;;;4997762;28;20039;-71
2022/10/07 09:39:38;;;;;;;13.50;2.65;;;14.80;99.90;;;;;;4989045;28;20044;-71
2022/10/07 09:42:07;;;;;;;11.07;2.50;;;14.90;99.90;;;;;;4987734;28;20038;-71
2022/10/07 09:44:33;;;;;;;11.55;2.42;;;15.00;99.90;;;;;;4989786;28;20050;-71
2022/10/07 09:47:18;;;;;;;15.13;2.72;;;15.00;99.90;;;;;;4992981;28;20098;-71
2022/10/07 09:49:55;;;;;;;13.35;3.42;;;15.10;99.90;;;;;;4978372;28;20038;-71
2022/10/07 09:52:30;;;;;;;13.73;2.20;;;15.10;99.90;;;;;;4993504;28;20050;-71
2022/10/07 09:55:16;;;;;;;13.13;2.67;;;15.20;99.90;;;;;;4993686;28;20121;-71
2022/10/07 09:57:42;;;;;;;11.23;2.20;;;15.40;99.90;;;;;;5008347;28;20050;-71
2022/10/07 10:00:24;;;;;;;12.48;2.08;;;15.40;99.90;;;;;;4993937;28;20097;-70
2022/10/07 10:03:03;;;;;;;11.80;2.58;;;15.50;99.90;;;;;;5007179;28;20050;-71
2022/10/07 10:05:49;;;;;;;14.25;3.40;;;15.50;99.90;;;;;;4993002;28;20092;-70
2022/10/07 10:08:15;;;;;;;12.25;2.25;;;15.50;99.90;;;;;;5005431;28;20038;-70
2022/10/07 10:10:49;;;;;;;13.50;2.53;;;15.50;99.90;;;;;;4977035;28;20044;-71
2022/10/07 10:13:39;;;;;;;15.85;3.58;;;15.50;99.90;;;;;;4993700;28;20085;-70
2022/10/07 10:16:27;;;;;;;11.70;2.13;;;15.40;99.90;;;;;;4994726;28;20504;-71
2022/10/07 10:18:58;;;;;;;15.95;3.05;;;15.40;99.90;;;;;;4994568;28;20077;-71
2022/10/07 10:21:28;;;;;;;15.25;2.25;;;15.40;99.90;;;;;;5026710;28;20038;-71
2022/10/07 10:23:59;;;;;;;15.15;2.97;;;15.40;99.90;;;;;;5025378;28;20052;-71
2022/10/07 10:26:55;;;;;;;13.90;2.20;;;15.40;99.90;;;;;;4997777;28;20369;-71
2022/10/07 10:29:27;;;;;;;13.00;2.08;;;15.40;99.90;;;;;;4993033;28;20050;-71
2022/10/07 10:32:04;;;;;;;13.82;2.40;;;15.40;99.90;;;;;;4991473;28;20046;-71
2022/10/07 10:35:00;;;;;;;15.20;2.42;;;15.40;99.90;;;;;;4992608;28;20511;-71
2022/10/07 10:37:32;;;;;;;13.48;3.03;;;15.40;99.90;;;;;;4996749;28;20389;-71
2022/10/07 10:40:18;;;;;;;12.55;2.45;;;15.40;99.90;;;;;;4993307;28;20038;-71
2022/10/07 10:43:15;;;;;;;11.52;2.33;;;15.40;99.90;;;;;;4986149;28;20051;-71
2022/10/07 10:45:49;;;;;;;10.73;2.33;;;15.50;99.90;;;;;;4989320;28;21526;-71
2022/10/07 10:48:52;;;;;;;14.02;3.50;;;15.50;99.90;;;;;;4978083;28;20072;-71
2022/10/07 10:51:45;;;;;;;14.68;2.10;;;15.50;99.90;;;;;;4993912;28;20047;-71
2022/10/07 10:54:38;;;;;;;11.13;2.22;;;15.50;99.90;;;;;;5026351;28;20053;-71
2022/10/07 10:57:34;;;;;;;16.70;2.17;;;15.70;99.90;;;;;;5026264;28;20061;-71
2022/10/07 11:00:17;;;;;;;14.10;2.42;;;15.70;99.90;;;;;;5013534;28;20060;-71
2022/10/07 11:03:01;;;;;;;;;;;15.70;99.90;;;;;;4979300;28;20121;-71
2022/10/07 11:05:39;;;;;;;12.32;2.88;;;15.70;99.90;;;;;;5010667;28;20004;-71
2022/10/07 11:08:16;;;;;;;11.77;2.30;;;15.70;99.90;;;;;;5007787;28;20177;-71
2022/10/07 11:10:54;;;;;;;12.07;2.47;;;15.80;99.90;;;;;;4992506;28;20088;-71
2022/10/07 11:13:45;;;;;;;9.20;2.30;;;15.70;99.90;;;;;;5006774;28;20117;-71
2022/10/07 11:16:23;;;;;;;13.13;2.83;;;15.80;99.90;;;;;;5029036;28;20514;-71
2022/10/07 11:19:00;;;;;;;12.82;2.10;;;15.80;99.90;;;;;;4987307;28;20043;-71
2022/10/07 11:21:33;;;;;;;9.32;2.50;;;15.80;99.90;;;;;;4990762;28;20050;-71
2022/10/07 11:24:12;;;;;;;14.48;2.33;;;15.80;99.90;;;;;;4996627;28;20510;-71
2022/10/07 11:26:49;;;;;;;10.38;2.60;;;15.90;99.90;;;;;;4990269;28;20049;-71
2022/10/07 11:29:27;;;;;;;11.13;2.28;;;15.90;99.90;;;;;;4990724;28;20531;-71
2022/10/07 11:32:13;;;;;;;12.55;2.33;;;15.90;99.90;;;;;;4991236;28;20034;-71
2022/10/07 11:35:07;;;;;;;11.45;2.40;;;16.00;99.90;;;;;;4976674;28;20109;-71
2022/10/07 11:37:57;;;;;;;12.50;2.30;;;16.10;99.90;;;;;;4992459;28;20038;-71
2022/10/07 11:40:26;;;;;;;12.07;1.75;;;16.20;99.90;;;;;;4977164;28;20074;-71
2022/10/07 11:42:56;;;;;;;12.65;2.22;;;16.20;99.90;;;;;;5010755;28;20504;-71
2022/10/07 11:45:32;;;;;;;11.40;2.38;;;16.40;99.90;;;;;;4975280;28;20511;-71
2022/10/07 11:48:04;;;;;;;11.05;2.00;;;16.40;99.90;;;;;;4976550;28;20042;-71
2022/10/07 11:50:35;;;;;;;15.20;3.00;;;16.50;99.90;;;;;;5022453;28;20057;-71
2022/10/07 11:53:13;;;;;;;9.53;1.77;;;16.50;99.90;;;;;;4967253;28;20038;-71
2022/10/07 11:55:50;;;;;;;11.52;2.30;;;16.60;99.90;;;;;;4988815;28;20042;-71
2022/10/07 11:58:36;;;;;;;9.13;1.73;;;16.60;99.90;;;;;;4989448;28;20058;-71
2022/10/07 12:01:27;;;;;;;8.52;1.70;;;16.60;99.90;;;;;;5005049;28;20040;-71
2022/10/07 12:04:44;;;;;;;10.55;2.00;;;16.80;99.90;;;;;;4985652;28;20053;-71
2022/10/07 12:07:55;;;;;;;8.90;2.10;;;16.70;99.90;;;;;;4951568;28;20061;-71
2022/10/07 12:10:32;;;;;;;12.52;2.35;;;16.70;99.90;;;;;;5005542;28;20448;-71
2022/10/07 12:12:59;;;;;;;9.05;1.90;;;16.70;99.90;;;;;;4987601;28;20046;-72
2022/10/07 12:15:42;;;;;;;11.55;2.20;;;16.70;99.90;;;;;;5008076;28;20042;-72
2022/10/07 12:18:09;;;;;;;14.65;2.22;;;16.70;99.90;;;;;;4988855;28;20488;-72
2022/10/07 12:20:50;;;;;;;9.00;2.17;;;16.60;99.90;;;;;;4991498;28;20053;-71
2022/10/07 12:23:19;;;;;;;11.73;2.50;;;16.60;99.90;;;;;;5008641;28;20046;-72
2022/10/07 12:25:47;;;;;;;11.20;2.20;;;16.60;99.90;;;;;;4992223;28;20129;-71
2022/10/07 12:28:33;;;;;;;10.43;2.20;;;16.60;99.90;;;;;;4972335;28;20038;-72
2022/10/07 12:31:01;;;;;;;12.20;2.40;;;16.60;99.90;;;;;;5013256;28;20042;-72
2022/10/07 12:33:39;;;;;;;9.52;1.90;;;16.70;99.90;;;;;;4991848;28;20613;-71
2022/10/07 12:36:20;;;;;;;11.65;2.22;;;16.70;99.90;;;;;;5043519;28;20438;-72
2022/10/07 12:38:54;;;;;;;10.10;1.90;;;16.70;99.90;;;;;;4993476;28;20081;-71
2022/10/07 12:41:35;;;;;;;11.02;1.85;;;16.70;99.90;;;;;;4990336;28;20046;-71
2022/10/07 12:44:13;;;;;;;8.85;1.67;;;16.60;99.90;;;;;;4990470;28;20121;-72
2022/10/07 12:47:11;;;;;;;11.63;2.40;;;16.60;99.90;;;;;;5020111;28;20053;-71
2022/10/07 12:49:42;;;;;;;10.73;2.35;;;16.50;99.90;;;;;;4987854;28;20038;-71
2022/10/07 12:52:29;;;;;;;10.52;1.75;;;16.40;99.90;;;;;;5015971;28;20038;-72
2022/10/07 12:55:23;;;;;;;12.68;1.85;;;16.30;99.90;;;;;;4991498;28;20064;-72
2022/10/07 12:59:45;;;;;;;11.45;1.85;;;16.40;99.90;;;;;;5013783;28;20093;-71
2022/10/07 13:01:03;;;;;;;10.13;1.77;;;16.30;99.90;;;;;;4990043;28;20039;-71
2022/10/07 13:03:53;;;;;;;8.35;1.70;;;16.40;99.90;;;;;;5008633;28;20046;-71
2022/10/07 13:06:40;;;;;;;9.00;1.77;;;16.30;99.90;;;;;;4990246;28;20054;-72
2022/10/07 13:09:32;;;;;;;8.88;1.92;;;16.30;99.90;;;;;;5006227;28;20046;-71
2022/10/07 13:12:16;;;;;;;10.47;1.70;;;16.30;99.90;;;;;;4989001;28;20061;-72
2022/10/07 13:15:00;;;;;;;11.77;1.85;;;16.30;99.90;;;;;;4990170;28;20046;-71